Time;durP1;ratioP1;P1;durP2;ratioP2;P2;SDS_P1;SDS_P2;PMS_P1;PMS_P2;Temp;Humidity;BMP_temperature;BMP_pressure;BME280_temperature;BME280_humidity;BME280_pressure;Samples;Min_cycle;Max_cycle;Signal;HPM_P1;HPM_P2
2024/01/31 00:02:13;;;;;;;11.35;1.17;;;;;;;;;;4937020;29;20051;-82
2024/01/31 00:04:44;;;;;;;10.05;1.15;;;;;;;;;;4929121;29;20048;-82
2024/01/31 00:07:26;;;;;;;9.15;1.30;;;;;;;;;;4937134;29;20059;-82
2024/01/31 00:09:58;;;;;;;5.28;1.02;;;;;;;;;;4931821;29;20051;-82
2024/01/31 00:12:53;;;;;;;11.88;1.30;;;;;;;;;;4939698;29;20067;-82
2024/01/31 00:16:05;;;;;;;3.13;0.80;;;;;;;;;;4936963;29;20048;-81
2024/01/31 00:19:23;;;;;;;4.63;1.58;;;;;;;;;;4937741;29;20048;-83
2024/01/31 00:22:10;;;;;;;10.52;2.13;;;;;;;;;;4918940;29;20059;-83
2024/01/31 00:25:17;;;;;;;10.50;1.30;;;;;;;;;;4919195;29;20067;-82
2024/01/31 00:28:13;;;;;;;15.10;1.27;;;;;;;;;;4917331;29;20115;-83
2024/01/31 00:31:04;;;;;;;9.10;1.20;;;;;;;;;;4907683;29;20048;-83
2024/01/31 00:33:35;;;;;;;7.22;0.95;;;;;;;;;;4881594;29;20539;-83
2024/01/31 00:36:05;;;;;;;9.75;1.75;;;;;;;;;;4895092;29;20056;-83
2024/01/31 00:38:38;;;;;;;5.90;1.08;;;;;;;;;;4894927;29;20063;-84
2024/01/31 00:41:08;;;;;;;7.85;1.10;;;;;;;;;;4895547;29;20064;-83
2024/01/31 00:43:39;;;;;;;6.78;1.25;;;;;;;;;;4895192;29;20057;-84
2024/01/31 00:46:10;;;;;;;7.70;1.10;;;;;;;;;;4906858;29;20060;-83
2024/01/31 00:48:42;;;;;;;5.65;1.17;;;;;;;;;;4910828;29;20047;-82
2024/01/31 00:51:13;;;;;;;6.15;1.45;;;;;;;;;;4913893;29;20060;-82
2024/01/31 00:54:33;;;;;;;6.00;1.20;;;;;;;;;;4935975;29;20454;-84
2024/01/31 00:57:05;;;;;;;6.30;1.20;;;;;;;;;;4940002;29;20416;-83
2024/01/31 00:59:35;;;;;;;8.00;1.30;;;;;;;;;;4937476;29;20052;-83
2024/01/31 01:02:12;;;;;;;4.55;1.08;;;;;;;;;;4940827;29;20040;-87
2024/01/31 01:04:46;;;;;;;5.55;1.30;;;;;;;;;;4936328;29;20119;-82
2024/01/31 01:07:16;;;;;;;8.85;1.60;;;;;;;;;;4939607;29;20048;-83
2024/01/31 01:09:47;;;;;;;8.35;1.42;;;;;;;;;;4947414;29;20363;-83
2024/01/31 01:12:17;;;;;;;9.02;1.40;;;;;;;;;;4957831;29;20055;-85
2024/01/31 01:14:47;;;;;;;10.32;1.85;;;;;;;;;;4957318;29;20054;-84
2024/01/31 01:17:17;;;;;;;11.45;1.40;;;;;;;;;;4957078;28;20051;-82
2024/01/31 01:19:47;;;;;;;13.95;1.38;;;;;;;;;;4957003;29;20043;-83
2024/01/31 01:22:19;;;;;;;8.05;1.60;;;;;;;;;;4957235;29;20402;-84
2024/01/31 01:24:50;;;;;;;13.10;1.70;;;;;;;;;;4940549;29;20047;-84
2024/01/31 01:27:21;;;;;;;10.98;1.38;;;;;;;;;;4957169;29;20494;-84
2024/01/31 01:29:50;;;;;;;20.15;2.08;;;;;;;;;;4957101;29;20056;-84
2024/01/31 01:32:20;;;;;;;6.93;1.40;;;;;;;;;;4957747;29;20058;-83
2024/01/31 01:34:52;;;;;;;13.55;1.70;;;;;;;;;;4957639;29;20050;-82
2024/01/31 01:37:22;;;;;;;6.38;1.40;;;;;;;;;;4958022;28;20050;-83
2024/01/31 01:39:52;;;;;;;9.40;1.65;;;;;;;;;;4957856;29;20055;-83
2024/01/31 01:42:22;;;;;;;7.22;1.60;;;;;;;;;;4957207;29;20047;-82
2024/01/31 01:44:53;;;;;;;7.72;1.40;;;;;;;;;;4956922;28;20051;-83
2024/01/31 01:47:24;;;;;;;8.88;1.80;;;;;;;;;;4957056;29;20046;-82
2024/01/31 01:49:55;;;;;;;9.93;1.75;;;;;;;;;;4939089;29;20054;-84
2024/01/31 01:52:27;;;;;;;13.43;1.50;;;;;;;;;;4958227;28;20047;-84
2024/01/31 01:54:58;;;;;;;12.77;2.05;;;;;;;;;;4976013;28;20073;-84
2024/01/31 01:57:31;;;;;;;13.02;1.98;;;;;;;;;;4975941;28;20549;-83
2024/01/31 02:00:01;;;;;;;10.85;2.10;;;;;;;;;;4976539;28;20047;-83
2024/01/31 02:02:32;;;;;;;9.88;1.75;;;;;;;;;;4978471;28;20050;-82
2024/01/31 02:05:05;;;;;;;8.15;1.70;;;;;;;;;;4976091;28;20065;-83
2024/01/31 02:07:36;;;;;;;11.10;1.83;;;;;;;;;;4976165;28;20047;-83
2024/01/31 02:10:07;;;;;;;5.45;1.60;;;;;;;;;;4976139;28;20066;-82
2024/01/31 02:12:37;;;;;;;7.50;1.67;;;;;;;;;;4976173;28;20050;-83
2024/01/31 02:15:08;;;;;;;8.07;1.70;;;;;;;;;;4958431;28;20433;-82
2024/01/31 02:17:39;;;;;;;4.93;1.33;;;;;;;;;;4976004;28;20058;-82
2024/01/31 02:20:15;;;;;;;6.93;1.52;;;;;;;;;;4958772;28;20054;-82
2024/01/31 02:22:49;;;;;;;5.68;1.70;;;;;;;;;;4959080;28;20101;-82
2024/01/31 02:25:20;;;;;;;10.85;1.92;;;;;;;;;;4958849;28;20409;-83
2024/01/31 02:27:50;;;;;;;4.30;1.58;;;;;;;;;;4958694;28;20050;-83
2024/01/31 02:30:19;;;;;;;7.60;1.40;;;;;;;;;;4975478;28;20054;-81
2024/01/31 02:32:49;;;;;;;7.88;1.55;;;;;;;;;;4975929;28;20046;-82
2024/01/31 02:35:20;;;;;;;6.15;1.60;;;;;;;;;;4975764;28;20485;-81
2024/01/31 02:37:51;;;;;;;7.28;1.58;;;;;;;;;;4975676;28;20046;-81
2024/01/31 02:40:22;;;;;;;6.28;1.60;;;;;;;;;;4957450;28;20051;-82
2024/01/31 02:42:52;;;;;;;15.77;2.13;;;;;;;;;;4958336;28;20054;-81
2024/01/31 02:45:22;;;;;;;11.50;2.30;;;;;;;;;;4975419;28;20413;-82
2024/01/31 02:47:53;;;;;;;5.82;1.80;;;;;;;;;;4975664;28;20370;-81
2024/01/31 02:50:26;;;;;;;11.57;1.95;;;;;;;;;;4975459;28;20062;-81
2024/01/31 02:52:57;;;;;;;10.25;1.73;;;;;;;;;;4975534;28;20054;-83
2024/01/31 02:55:27;;;;;;;6.97;1.80;;;;;;;;;;4975203;28;20050;-81
2024/01/31 02:57:57;;;;;;;8.73;1.50;;;;;;;;;;4975724;28;20050;-82
2024/01/31 03:00:27;;;;;;;8.93;1.85;;;;;;;;;;4975515;28;20047;-82
2024/01/31 03:03:00;;;;;;;14.65;2.40;;;;;;;;;;4975243;28;20053;-82
2024/01/31 03:05:31;;;;;;;10.18;1.63;;;;;;;;;;4975653;28;20050;-81
2024/01/31 03:08:02;;;;;;;8.77;1.75;;;;;;;;;;4975038;28;20046;-83
2024/01/31 03:10:33;;;;;;;7.80;2.10;;;;;;;;;;4974908;28;20062;-82
2024/01/31 03:13:03;;;;;;;9.25;1.80;;;;;;;;;;4981653;28;20062;-81
2024/01/31 03:15:33;;;;;;;8.27;1.83;;;;;;;;;;4993610;28;20051;-81
2024/01/31 03:18:04;;;;;;;12.30;2.15;;;;;;;;;;4993459;28;20053;-80
2024/01/31 03:20:34;;;;;;;6.30;1.90;;;;;;;;;;4993896;28;20051;-81
2024/01/31 03:23:05;;;;;;;15.65;2.50;;;;;;;;;;4980022;28;20062;-81
2024/01/31 03:25:36;;;;;;;8.20;2.10;;;;;;;;;;4956577;28;20051;-83
2024/01/31 03:28:07;;;;;;;8.48;1.90;;;;;;;;;;4974487;28;20501;-82
2024/01/31 03:30:38;;;;;;;9.27;1.75;;;;;;;;;;4974606;28;20413;-82
2024/01/31 03:33:08;;;;;;;11.60;2.20;;;;;;;;;;4974160;28;20482;-82
2024/01/31 03:35:38;;;;;;;9.75;2.40;;;;;;;;;;4956548;28;20070;-81
2024/01/31 03:38:09;;;;;;;12.02;2.08;;;;;;;;;;4974055;28;20047;-82
2024/01/31 03:40:39;;;;;;;10.13;1.80;;;;;;;;;;4974158;28;20042;-82
2024/01/31 03:43:09;;;;;;;9.65;1.95;;;;;;;;;;4974123;28;20038;-83
2024/01/31 03:45:39;;;;;;;5.43;1.83;;;;;;;;;;4974236;28;20042;-81
2024/01/31 03:48:09;;;;;;;6.60;1.90;;;;;;;;;;4974479;28;20406;-83
2024/01/31 03:50:40;;;;;;;7.30;2.25;;;;;;;;;;4973995;28;20054;-82
2024/01/31 03:53:10;;;;;;;8.88;2.08;;;;;;;;;;4973998;28;20524;-82
2024/01/31 03:55:41;;;;;;;7.28;2.10;;;;;;;;;;4974060;28;20041;-81
2024/01/31 03:58:11;;;;;;;6.53;1.90;;;;;;;;;;4955338;28;20073;-82
2024/01/31 04:00:42;;;;;;;10.68;2.30;;;;;;;;;;4957160;28;20058;-81
2024/01/31 04:03:12;;;;;;;7.75;2.50;;;;;;;;;;4974071;28;20054;-82
2024/01/31 04:05:42;;;;;;;8.68;2.40;;;;;;;;;;4956691;28;20050;-81
2024/01/31 04:08:12;;;;;;;9.88;2.20;;;;;;;;;;4973802;28;20050;-82
2024/01/31 04:10:43;;;;;;;10.98;2.38;;;;;;;;;;4973873;28;20051;-82
2024/01/31 04:13:14;;;;;;;17.27;2.65;;;;;;;;;;4974049;28;20050;-82
2024/01/31 04:15:44;;;;;;;8.63;2.08;;;;;;;;;;4973630;28;20043;-82
2024/01/31 04:18:14;;;;;;;7.97;2.05;;;;;;;;;;4973885;28;20054;-81
2024/01/31 04:20:46;;;;;;;13.13;2.42;;;;;;;;;;4973843;28;20050;-81
2024/01/31 04:23:17;;;;;;;12.30;2.55;;;;;;;;;;4973719;28;20054;-81
2024/01/31 04:25:48;;;;;;;10.93;2.38;;;;;;;;;;4974790;28;20054;-82
2024/01/31 04:28:20;;;;;;;14.00;1.98;;;;;;;;;;4977512;28;20475;-82
2024/01/31 04:30:52;;;;;;;9.63;2.10;;;;;;;;;;4978411;28;20046;-82
2024/01/31 04:33:22;;;;;;;8.45;2.10;;;;;;;;;;4959441;28;20042;-82
2024/01/31 04:35:54;;;;;;;10.80;2.05;;;;;;;;;;4977349;28;20047;-82
2024/01/31 04:38:25;;;;;;;10.05;2.20;;;;;;;;;;4960921;28;20094;-82
2024/01/31 04:40:55;;;;;;;9.45;1.83;;;;;;;;;;4977553;28;20054;-82
2024/01/31 04:43:26;;;;;;;7.80;1.90;;;;;;;;;;4977592;28;20043;-82
2024/01/31 04:45:58;;;;;;;6.57;1.90;;;;;;;;;;4959645;28;20058;-81
2024/01/31 04:48:29;;;;;;;5.03;2.03;;;;;;;;;;4977172;28;20047;-82
2024/01/31 04:51:03;;;;;;;4.45;2.10;;;;;;;;;;4960519;28;20047;-82
2024/01/31 04:53:34;;;;;;;6.18;1.90;;;;;;;;;;4977119;28;20058;-82
2024/01/31 04:56:09;;;;;;;6.78;2.50;;;;;;;;;;4977224;28;20062;-81
2024/01/31 04:58:40;;;;;;;8.75;2.78;;;;;;;;;;4976704;28;20047;-82
2024/01/31 05:01:11;;;;;;;6.20;2.08;;;;;;;;;;4977103;28;20050;-82
2024/01/31 05:03:41;;;;;;;5.63;2.20;;;;;;;;;;4976950;28;20058;-80
2024/01/31 05:06:11;;;;;;;10.65;2.17;;;;;;;;;;4977062;28;20047;-81
2024/01/31 05:08:42;;;;;;;6.90;2.15;;;;;;;;;;4976876;28;20057;-80
2024/01/31 05:11:14;;;;;;;8.55;2.33;;;;;;;;;;4976998;28;20039;-81
2024/01/31 05:13:44;;;;;;;8.18;1.95;;;;;;;;;;4976691;28;20050;-82
2024/01/31 05:16:19;;;;;;;11.27;2.45;;;;;;;;;;4976873;28;20070;-81
2024/01/31 05:18:50;;;;;;;8.55;2.55;;;;;;;;;;4976945;28;20348;-80
2024/01/31 05:21:21;;;;;;;12.98;2.95;;;;;;;;;;4976996;28;20387;-81
2024/01/31 05:23:52;;;;;;;8.02;1.92;;;;;;;;;;4977331;28;20054;-81
2024/01/31 05:26:22;;;;;;;8.57;1.98;;;;;;;;;;4978131;28;20054;-81
2024/01/31 05:28:52;;;;;;;9.77;2.10;;;;;;;;;;4981300;28;20058;-80
2024/01/31 05:31:22;;;;;;;8.60;1.95;;;;;;;;;;4979672;28;20058;-80
2024/01/31 05:33:52;;;;;;;9.02;2.35;;;;;;;;;;4980048;28;20047;-81
2024/01/31 05:36:22;;;;;;;5.22;2.28;;;;;;;;;;4978051;28;20046;-81
2024/01/31 05:38:53;;;;;;;11.10;2.63;;;;;;;;;;4975137;28;20054;-81
2024/01/31 05:41:25;;;;;;;8.55;2.38;;;;;;;;;;4976351;28;20528;-81
2024/01/31 05:44:02;;;;;;;5.55;2.50;;;;;;;;;;4975670;28;20406;-81
2024/01/31 05:50:21;;;;;;;11.50;2.60;;;;;;;;;;4922390;29;20097;-82
2024/01/31 05:52:51;;;;;;;6.78;2.50;;;;;;;;;;4935063;29;20156;-81
2024/01/31 05:55:21;;;;;;;6.60;2.53;;;;;;;;;;4935766;29;20078;-80
2024/01/31 05:58:32;;;;;;;10.82;2.13;;;;;;;;;;4919285;29;20056;-80
2024/01/31 06:06:16;;;;;;;5.30;1.90;;;;;;;;;;4766975;30;20048;-80
2024/01/31 06:09:19;;;;;;;7.50;2.45;;;;;;;;;;4765896;30;20412;-81
2024/01/31 06:11:50;;;;;;;8.90;2.47;;;;;;;;;;4779089;30;20170;-81
2024/01/31 06:14:21;;;;;;;8.52;2.03;;;;;;;;;;4787392;29;20537;-81
2024/01/31 06:16:51;;;;;;;8.68;2.22;;;;;;;;;;4772286;30;20539;-82
2024/01/31 06:19:22;;;;;;;10.25;2.40;;;;;;;;;;4787027;30;20078;-81
2024/01/31 06:21:52;;;;;;;6.60;1.90;;;;;;;;;;4786693;29;20059;-80
2024/01/31 06:24:22;;;;;;;10.82;2.45;;;;;;;;;;4787357;29;20063;-82
2024/01/31 06:27:00;;;;;;;9.55;2.17;;;;;;;;;;4787041;29;20067;-80
2024/01/31 06:30:44;;;;;;;7.85;2.22;;;;;;;;;;4771785;29;20419;-81
2024/01/31 06:34:20;;;;;;;9.48;2.45;;;;;;;;;;4750914;29;20094;-81
2024/01/31 06:38:11;;;;;;;4.93;1.90;;;;;;;;;;4734090;30;20102;-80
2024/01/31 06:42:18;;;;;;;6.18;1.90;;;;;;;;;;4729192;30;20052;-80
2024/01/31 06:45:12;;;;;;;5.53;1.65;;;;;;;;;;4701097;30;20057;-80
2024/01/31 06:47:45;;;;;;;7.35;1.83;;;;;;;;;;4698800;30;20081;-81
2024/01/31 06:50:16;;;;;;;5.28;1.88;;;;;;;;;;4700017;30;20077;-80
2024/01/31 06:52:47;;;;;;;9.20;2.17;;;;;;;;;;4733307;30;20065;-80
2024/01/31 06:55:17;;;;;;;6.80;2.08;;;;;;;;;;4733073;30;20060;-80
2024/01/31 06:57:48;;;;;;;5.90;1.60;;;;;;;;;;4763738;29;20063;-80
2024/01/31 07:00:19;;;;;;;7.93;2.60;;;;;;;;;;4786818;30;20047;-79
2024/01/31 07:02:52;;;;;;;6.88;2.42;;;;;;;;;;4786792;29;20059;-81
2024/01/31 07:05:23;;;;;;;5.13;1.95;;;;;;;;;;4771984;30;20063;-82
2024/01/31 07:07:53;;;;;;;6.70;2.20;;;;;;;;;;4786212;29;20070;-80
2024/01/31 07:10:26;;;;;;;8.32;2.55;;;;;;;;;;4772206;30;20056;-79
2024/01/31 07:12:59;;;;;;;6.15;1.98;;;;;;;;;;4786280;30;20063;-81
2024/01/31 07:15:29;;;;;;;6.03;2.10;;;;;;;;;;4786279;29;20055;-81
2024/01/31 07:17:59;;;;;;;5.88;2.28;;;;;;;;;;4786277;29;20055;-81
2024/01/31 07:20:29;;;;;;;7.72;2.15;;;;;;;;;;4795737;29;20077;-81
2024/01/31 07:22:59;;;;;;;5.80;1.80;;;;;;;;;;4840809;29;20065;-81
2024/01/31 07:25:29;;;;;;;5.65;2.20;;;;;;;;;;4840195;29;20130;-80
2024/01/31 07:27:59;;;;;;;7.75;1.90;;;;;;;;;;4840505;29;20054;-79
2024/01/31 07:30:29;;;;;;;7.25;2.35;;;;;;;;;;4840118;29;20074;-80
2024/01/31 07:33:00;;;;;;;9.05;2.03;;;;;;;;;;4840301;29;20098;-81
2024/01/31 07:35:30;;;;;;;5.45;1.90;;;;;;;;;;4840203;29;20058;-82
2024/01/31 07:38:00;;;;;;;9.23;2.20;;;;;;;;;;4840301;29;20053;-81
2024/01/31 07:40:30;;;;;;;5.10;2.25;;;;;;;;;;4851627;29;20064;-80
2024/01/31 07:43:01;;;;;;;7.22;2.17;;;;;;;;;;4961821;28;20069;-80
2024/01/31 07:45:30;;;;;;;7.72;2.53;;;;;;;;;;4974160;28;20050;-81
2024/01/31 07:48:00;;;;;;;10.25;2.42;;;;;;;;;;4956233;28;20062;-81
2024/01/31 07:50:31;;;;;;;8.45;2.55;;;;;;;;;;4973845;28;20417;-81
2024/01/31 07:53:04;;;;;;;6.15;2.20;;;;;;;;;;4974357;28;20055;-80
2024/01/31 07:55:35;;;;;;;8.98;1.77;;;;;;;;;;4973526;28;20042;-80
2024/01/31 07:58:06;;;;;;;5.63;2.22;;;;;;;;;;4974251;28;20050;-81
2024/01/31 08:00:36;;;;;;;6.35;2.40;;;;;;;;;;4973375;28;20047;-81
2024/01/31 08:03:06;;;;;;;9.13;2.15;;;;;;;;;;4973925;28;20047;-81
2024/01/31 08:05:38;;;;;;;6.97;2.30;;;;;;;;;;4973947;28;20401;-82
2024/01/31 08:08:08;;;;;;;4.97;2.08;;;;;;;;;;4973636;28;20462;-81
2024/01/31 08:10:38;;;;;;;5.97;2.10;;;;;;;;;;4973877;28;20081;-81
2024/01/31 08:13:08;;;;;;;7.55;2.50;;;;;;;;;;4973751;28;20050;-81
2024/01/31 08:15:38;;;;;;;4.88;2.17;;;;;;;;;;4974096;28;20050;-82
2024/01/31 08:18:10;;;;;;;7.18;2.33;;;;;;;;;;4973903;28;20050;-81
2024/01/31 08:20:41;;;;;;;8.90;2.20;;;;;;;;;;4973389;28;20509;-80
2024/01/31 08:23:12;;;;;;;6.03;2.15;;;;;;;;;;4974060;28;20047;-80
2024/01/31 08:25:41;;;;;;;8.25;2.20;;;;;;;;;;4973709;28;20487;-81
2024/01/31 08:28:11;;;;;;;6.40;2.20;;;;;;;;;;4973603;28;20062;-80
2024/01/31 08:30:42;;;;;;;6.47;2.00;;;;;;;;;;4973305;28;20055;-81
2024/01/31 08:33:12;;;;;;;6.28;2.22;;;;;;;;;;4973441;28;20409;-80
2024/01/31 08:35:43;;;;;;;5.95;2.22;;;;;;;;;;4973273;28;20054;-82
2024/01/31 08:38:13;;;;;;;5.60;2.28;;;;;;;;;;4973680;28;20051;-80
2024/01/31 08:40:45;;;;;;;10.95;2.40;;;;;;;;;;4973302;28;20582;-81
2024/01/31 08:43:17;;;;;;;10.80;2.22;;;;;;;;;;4973617;28;20062;-81
2024/01/31 08:45:48;;;;;;;8.00;2.42;;;;;;;;;;4973554;28;20062;-80
2024/01/31 08:48:18;;;;;;;7.13;2.17;;;;;;;;;;4962364;28;20054;-80
2024/01/31 08:50:48;;;;;;;9.43;2.30;;;;;;;;;;4953863;29;20074;-80
2024/01/31 08:53:18;;;;;;;6.05;2.35;;;;;;;;;;4953769;28;20494;-82
2024/01/31 08:55:48;;;;;;;6.63;2.33;;;;;;;;;;4953752;28;20043;-82
2024/01/31 08:58:33;;;;;;;9.63;2.50;;;;;;;;;;4954043;29;20051;-81
2024/01/31 09:01:04;;;;;;;10.77;2.30;;;;;;;;;;4953498;28;20417;-80
2024/01/31 09:03:34;;;;;;;6.72;2.20;;;;;;;;;;4954180;29;20055;-79
2024/01/31 09:06:05;;;;;;;8.10;2.22;;;;;;;;;;4954112;29;20602;-81
2024/01/31 09:08:37;;;;;;;6.03;1.90;;;;;;;;;;4937228;29;20052;-81
2024/01/31 09:11:07;;;;;;;6.63;2.13;;;;;;;;;;4954391;28;20043;-81
2024/01/31 09:13:37;;;;;;;4.53;1.90;;;;;;;;;;4957633;29;20051;-80
2024/01/31 09:16:08;;;;;;;7.30;2.30;;;;;;;;;;4957330;29;20047;-79
2024/01/31 09:18:38;;;;;;;11.80;2.38;;;;;;;;;;4939714;29;20059;-80
2024/01/31 09:21:28;;;;;;;6.00;2.67;;;;;;;;;;4957264;29;20047;-81
2024/01/31 09:23:58;;;;;;;6.30;2.10;;;;;;;;;;4957597;29;20043;-81
2024/01/31 09:26:28;;;;;;;15.27;2.60;;;;;;;;;;4939935;29;20069;-80
2024/01/31 09:28:58;;;;;;;9.70;2.45;;;;;;;;;;4957180;29;20051;-80
2024/01/31 09:31:28;;;;;;;4.05;1.92;;;;;;;;;;4956799;28;20052;-80
2024/01/31 09:33:59;;;;;;;6.05;2.10;;;;;;;;;;4956429;29;20118;-82
2024/01/31 09:36:39;;;;;;;11.43;2.40;;;;;;;;;;4938849;29;20051;-81
2024/01/31 09:39:10;;;;;;;6.40;2.38;;;;;;;;;;4936526;29;20537;-80
2024/01/31 09:41:42;;;;;;;9.25;1.83;;;;;;;;;;4953043;29;20043;-79
2024/01/31 09:44:12;;;;;;;3.83;1.60;;;;;;;;;;4957020;29;20054;-81
2024/01/31 09:46:47;;;;;;;4.90;1.65;;;;;;;;;;4936323;29;20059;-82
2024/01/31 09:49:20;;;;;;;5.95;1.83;;;;;;;;;;4936559;29;20043;-82
2024/01/31 09:51:55;;;;;;;6.05;1.98;;;;;;;;;;4968474;28;20043;-81
2024/01/31 09:54:26;;;;;;;5.47;2.05;;;;;;;;;;4958507;28;20508;-82
2024/01/31 09:56:58;;;;;;;8.43;2.10;;;;;;;;;;4959626;28;20047;-82
2024/01/31 09:59:30;;;;;;;4.50;2.08;;;;;;;;;;4971653;28;21103;-83
2024/01/31 10:02:02;;;;;;;5.88;2.28;;;;;;;;;;4954049;29;20051;-82
2024/01/31 10:04:32;;;;;;;7.57;2.28;;;;;;;;;;4956016;29;20035;-83
2024/01/31 10:07:07;;;;;;;5.57;1.80;;;;;;;;;;4951711;29;20052;-83
2024/01/31 10:09:37;;;;;;;9.63;1.92;;;;;;;;;;4954015;29;20036;-82
2024/01/31 10:12:08;;;;;;;6.97;2.10;;;;;;;;;;4955177;29;20047;-82
2024/01/31 10:14:41;;;;;;;7.63;2.60;;;;;;;;;;4956052;29;20055;-84
2024/01/31 10:17:13;;;;;;;5.78;1.80;;;;;;;;;;4955140;29;20051;-83
2024/01/31 10:19:43;;;;;;;10.95;2.13;;;;;;;;;;4955614;29;20039;-83
2024/01/31 10:22:13;;;;;;;9.35;2.00;;;;;;;;;;4956094;29;20486;-83
2024/01/31 10:24:50;;;;;;;8.48;1.95;;;;;;;;;;4954300;28;20521;-83
2024/01/31 10:27:23;;;;;;;7.07;2.88;;;;;;;;;;4940240;29;20137;-83
2024/01/31 10:29:54;;;;;;;6.78;2.80;;;;;;;;;;4937397;29;20159;-83
2024/01/31 10:32:24;;;;;;;8.82;1.92;;;;;;;;;;4939851;29;20062;-84
2024/01/31 10:34:59;;;;;;;9.23;2.15;;;;;;;;;;4944869;29;20055;-83
2024/01/31 10:37:51;;;;;;;11.27;1.95;;;;;;;;;;4938879;29;20047;-83
2024/01/31 10:40:30;;;;;;;11.13;2.80;;;;;;;;;;4953781;28;20047;-84
2024/01/31 10:43:05;;;;;;;7.63;1.80;;;;;;;;;;4968819;28;20050;-84
2024/01/31 10:46:12;;;;;;;;;;;;;;;;;;4979662;28;20054;-89
2024/01/31 10:49:20;;;;;;;12.50;2.03;;;;;;;;;;4922716;29;19922;-84
2024/01/31 10:56:20;;;;;;;7.20;2.10;;;;;;;;;;4899339;29;20060;-86
2024/01/31 10:58:52;;;;;;;6.38;1.95;;;;;;;;;;4883649;29;20052;-85
2024/01/31 11:01:31;;;;;;;6.70;1.90;;;;;;;;;;4921270;29;20047;-83
2024/01/31 11:04:08;;;;;;;7.43;1.92;;;;;;;;;;4936887;29;20066;-85
2024/01/31 11:06:42;;;;;;;4.28;1.80;;;;;;;;;;4955586;29;20534;-84
2024/01/31 11:09:41;;;;;;;10.63;2.15;;;;;;;;;;4956756;29;20043;-83
2024/01/31 11:12:14;;;;;;;12.90;2.97;;;;;;;;;;4922423;29;20518;-83
2024/01/31 11:14:47;;;;;;;9.68;3.20;;;;;;;;;;4954536;28;20051;-84
2024/01/31 11:17:33;;;;;;;15.15;3.35;;;;;;;;;;4938347;29;20155;-83
2024/01/31 11:20:05;;;;;;;10.45;3.40;;;;;;;;;;4954538;29;20055;-83
2024/01/31 11:22:36;;;;;;;11.50;3.00;;;;;;;;;;4945626;29;20050;-82
2024/01/31 11:25:08;;;;;;;7.35;2.50;;;;;;;;;;4959388;29;20048;-82
2024/01/31 11:27:38;;;;;;;5.30;2.38;;;;;;;;;;4958830;29;20513;-82
2024/01/31 11:30:09;;;;;;;4.30;2.00;;;;;;;;;;4941771;29;20047;-82
2024/01/31 11:32:41;;;;;;;7.25;2.40;;;;;;;;;;4961881;28;20528;-83
2024/01/31 11:35:12;;;;;;;5.45;1.90;;;;;;;;;;4963146;28;20043;-81
2024/01/31 11:37:43;;;;;;;5.43;1.50;;;;;;;;;;4968225;29;20051;-82
2024/01/31 11:40:13;;;;;;;5.35;1.80;;;;;;;;;;4975993;28;20043;-83
2024/01/31 11:42:44;;;;;;;8.82;2.00;;;;;;;;;;4959056;29;20062;-83
2024/01/31 11:45:15;;;;;;;5.05;1.60;;;;;;;;;;4974519;29;20066;-82
2024/01/31 11:47:46;;;;;;;4.35;1.60;;;;;;;;;;4955443;29;20396;-82
2024/01/31 11:50:18;;;;;;;7.50;1.80;;;;;;;;;;4955319;29;20039;-83
2024/01/31 11:53:13;;;;;;;4.40;1.40;;;;;;;;;;4955760;28;20055;-85
2024/01/31 11:55:49;;;;;;;4.68;1.30;;;;;;;;;;4956758;29;20409;-84
2024/01/31 11:58:19;;;;;;;8.38;1.85;;;;;;;;;;4959434;29;20051;-84
2024/01/31 12:01:16;;;;;;;6.63;1.90;;;;;;;;;;4955384;28;20047;-84
2024/01/31 12:03:51;;;;;;;5.00;2.00;;;;;;;;;;4940966;29;20051;-84
2024/01/31 12:06:27;;;;;;;4.60;1.35;;;;;;;;;;4940597;29;20050;-85
2024/01/31 12:09:22;;;;;;;2.47;0.90;;;;;;;;;;4923375;29;20536;-85
2024/01/31 12:12:34;;;;;;;3.58;0.98;;;;;;;;;;4951555;29;20146;-84
2024/01/31 12:15:13;;;;;;;2.65;0.82;;;;;;;;;;4945157;29;20207;-85
2024/01/31 12:20:45;;;;;;;3.67;0.88;;;;;;;;;;4922376;29;20074;-83
2024/01/31 12:23:21;;;;;;;3.55;0.82;;;;;;;;;;4944590;29;20043;-83
2024/01/31 12:26:19;;;;;;;2.85;1.02;;;;;;;;;;4956678;29;20063;-82
2024/01/31 12:28:56;;;;;;;3.17;1.05;;;;;;;;;;4953532;28;20047;-85
2024/01/31 12:31:27;;;;;;;3.25;0.93;;;;;;;;;;4953703;29;20051;-86
2024/01/31 12:34:01;;;;;;;2.38;0.93;;;;;;;;;;4944058;28;20063;-82
2024/01/31 12:36:31;;;;;;;;;;;;;;;;;;4952357;28;20047;-84
2024/01/31 12:39:01;;;;;;;1.73;0.93;;;;;;;;;;4967000;28;19927;-85
2024/01/31 12:41:32;;;;;;;4.03;0.85;;;;;;;;;;4955618;28;20043;-83
2024/01/31 12:44:03;;;;;;;3.30;1.23;;;;;;;;;;4959962;28;20425;-84
2024/01/31 12:46:33;;;;;;;4.15;1.10;;;;;;;;;;4931535;29;20060;-84
2024/01/31 12:52:35;;;;;;;1.85;0.82;;;;;;;;;;4953830;28;20040;-82
2024/01/31 12:55:23;;;;;;;3.47;0.95;;;;;;;;;;4946557;29;20054;-84
2024/01/31 12:58:11;;;;;;;3.58;1.02;;;;;;;;;;4941599;29;20067;-85
2024/01/31 13:00:41;;;;;;;1.63;1.08;;;;;;;;;;4956125;28;20070;-83
2024/01/31 13:03:14;;;;;;;2.28;1.23;;;;;;;;;;4955617;29;20106;-84
2024/01/31 13:05:45;;;;;;;10.25;4.45;;;;;;;;;;4932626;29;20078;-83
2024/01/31 13:08:15;;;;;;;3.05;1.50;;;;;;;;;;4972254;28;20042;-84
2024/01/31 13:10:45;;;;;;;4.07;1.00;;;;;;;;;;4948179;29;20051;-85
2024/01/31 13:13:15;;;;;;;3.90;1.13;;;;;;;;;;4953534;28;20051;-84
2024/01/31 13:15:45;;;;;;;7.50;1.33;;;;;;;;;;4957097;29;20051;-83
2024/01/31 13:18:16;;;;;;;2.53;1.20;;;;;;;;;;4956982;29;20047;-85
2024/01/31 13:20:49;;;;;;;4.35;1.73;;;;;;;;;;4956179;29;20051;-83
2024/01/31 13:23:20;;;;;;;2.33;0.93;;;;;;;;;;4956453;29;20050;-84
2024/01/31 13:25:59;;;;;;;2.22;0.90;;;;;;;;;;4957006;28;20058;-84
2024/01/31 13:28:29;;;;;;;2.65;1.00;;;;;;;;;;4945997;28;20047;-85
2024/01/31 13:31:06;;;;;;;4.43;1.20;;;;;;;;;;4978269;28;20408;-87
2024/01/31 13:33:36;;;;;;;3.70;1.00;;;;;;;;;;4976782;28;20046;-87
2024/01/31 13:36:08;;;;;;;2.13;0.90;;;;;;;;;;4938740;29;20071;-85
2024/01/31 13:38:40;;;;;;;2.53;0.80;;;;;;;;;;4964279;28;20047;-86
2024/01/31 13:41:11;;;;;;;2.65;1.00;;;;;;;;;;4957694;28;20050;-84
2024/01/31 13:43:41;;;;;;;3.25;1.08;;;;;;;;;;4955321;28;20060;-86
2024/01/31 13:46:12;;;;;;;1.80;0.70;;;;;;;;;;4953553;28;20490;-84
2024/01/31 13:48:43;;;;;;;1.33;0.80;;;;;;;;;;4955952;29;20059;-85
2024/01/31 13:51:16;;;;;;;3.08;0.80;;;;;;;;;;4956415;28;20084;-85
2024/01/31 13:53:46;;;;;;;3.35;1.23;;;;;;;;;;4959666;28;20054;-83
2024/01/31 13:56:16;;;;;;;3.45;0.98;;;;;;;;;;4967044;28;20050;-85
2024/01/31 13:58:46;;;;;;;3.50;1.02;;;;;;;;;;4966946;28;20042;-85
2024/01/31 14:01:16;;;;;;;2.72;1.02;;;;;;;;;;4952952;29;20043;-86
2024/01/31 14:03:47;;;;;;;2.10;0.90;;;;;;;;;;4957002;28;20051;-88
2024/01/31 14:06:18;;;;;;;1.00;0.63;;;;;;;;;;4938739;29;20062;-87
2024/01/31 14:08:48;;;;;;;5.93;0.80;;;;;;;;;;4956754;28;20051;-86
2024/01/31 14:11:19;;;;;;;4.93;0.80;;;;;;;;;;4945234;28;20063;-87
2024/01/31 14:13:50;;;;;;;3.05;1.00;;;;;;;;;;4938904;29;20419;-86
2024/01/31 14:16:20;;;;;;;2.28;0.90;;;;;;;;;;4955016;28;20054;-84
2024/01/31 14:18:50;;;;;;;4.15;0.80;;;;;;;;;;4942222;28;20528;-88
2024/01/31 14:21:21;;;;;;;1.92;1.17;;;;;;;;;;4972890;28;20039;-86
2024/01/31 14:23:51;;;;;;;2.55;0.70;;;;;;;;;;4956381;28;20410;-89
2024/01/31 14:26:37;;;;;;;2.55;0.70;;;;;;;;;;4956428;29;20050;-88
2024/01/31 14:29:07;;;;;;;6.25;1.60;;;;;;;;;;4962842;28;20046;-87
2024/01/31 14:31:39;;;;;;;1.95;0.82;;;;;;;;;;4957326;28;20417;-86
2024/01/31 14:34:11;;;;;;;3.05;0.80;;;;;;;;;;4960158;28;20521;-85
2024/01/31 14:36:43;;;;;;;3.28;0.90;;;;;;;;;;4956047;29;20039;-86
2024/01/31 14:39:14;;;;;;;3.35;0.90;;;;;;;;;;4949527;29;20050;-86
2024/01/31 14:41:47;;;;;;;6.03;0.93;;;;;;;;;;4939179;29;20044;-88
2024/01/31 14:44:17;;;;;;;1.63;0.90;;;;;;;;;;4949881;28;20107;-85
2024/01/31 14:46:49;;;;;;;1.90;0.90;;;;;;;;;;4937590;29;20156;-87
2024/01/31 14:49:20;;;;;;;2.17;0.98;;;;;;;;;;4952159;28;20043;-85
2024/01/31 14:51:51;;;;;;;3.35;0.93;;;;;;;;;;4957264;28;20039;-87
2024/01/31 14:54:21;;;;;;;3.92;1.10;;;;;;;;;;4973740;28;20410;-85
2024/01/31 14:57:07;;;;;;;3.65;1.00;;;;;;;;;;4974332;28;20061;-89
2024/01/31 14:59:46;;;;;;;2.38;1.15;;;;;;;;;;4975352;28;20157;-87
2024/01/31 15:02:17;;;;;;;3.70;0.82;;;;;;;;;;4956776;28;20058;-88
2024/01/31 15:05:15;;;;;;;4.32;1.00;;;;;;;;;;4974395;28;20053;-88
2024/01/31 15:08:04;;;;;;;5.53;1.00;;;;;;;;;;4919763;29;20047;-87
2024/01/31 15:10:40;;;;;;;2.58;1.00;;;;;;;;;;4918508;29;20048;-88
2024/01/31 15:13:10;;;;;;;4.15;1.05;;;;;;;;;;4917704;29;20048;-87
2024/01/31 15:15:40;;;;;;;2.63;0.98;;;;;;;;;;4933949;29;20475;-86
2024/01/31 15:18:10;;;;;;;6.45;0.73;;;;;;;;;;4918855;29;20060;-87
2024/01/31 15:20:40;;;;;;;4.85;1.00;;;;;;;;;;4917311;29;20063;-86
2024/01/31 15:23:10;;;;;;;4.60;1.42;;;;;;;;;;4934715;29;20067;-86
2024/01/31 15:25:40;;;;;;;2.22;0.82;;;;;;;;;;4917728;29;20052;-88
2024/01/31 15:28:10;;;;;;;2.70;1.08;;;;;;;;;;4914465;29;20067;-87
2024/01/31 15:30:40;;;;;;;2.80;1.00;;;;;;;;;;4897674;29;20439;-86
2024/01/31 15:33:10;;;;;;;6.63;1.02;;;;;;;;;;4913617;29;20060;-86
2024/01/31 15:35:42;;;;;;;3.58;0.90;;;;;;;;;;4913967;29;20124;-85
2024/01/31 15:38:15;;;;;;;2.38;0.82;;;;;;;;;;4922084;29;20066;-87
2024/01/31 15:40:46;;;;;;;4.38;1.35;;;;;;;;;;4944863;29;20066;-88
2024/01/31 15:44:02;;;;;;;3.13;1.13;;;;;;;;;;4942507;29;20051;-85